Terminal Aerodrome Forecast
Issued by NWS Glasgow, MT

Home | Current Version | Previous Version | Text Only | Print | Product List | Glossary On
Versions: 1 2 3 4 5 6 7 8 9 10 11 12 13
000
FTUS45 KGGW 211124
TAFGGW
TAF
KGGW 211124Z 2112/2212 34006KT P6SM BKN120
     FM211300 35007KT P6SM SCT100
     FM220200 04006KT P6SM FEW130=

USA.gov is the U.S. government's official web portal to all federal, state and local government web resources and services.